AddedLatest Added eBooks:

  1. 2020-03-273D Button Creator Gold v3.03
  2. 2020-03-27Windows ALL (7,8.1,10) All Editions With Updates AIO 54in1 (x86/x64) Multilanguage March 2020
  3. 2020-03-27Grass Valley EDIUS Pro 8.53.4924
  4. 2020-03-27Windows 8.1 Pro Vl Update 3.0 With Office 2016 Multilingual March 2020 Preactivated
  5. 2020-03-27Daily Star [2020 03 13]
  6. 2020-03-27Adobe Adobe XD CC 2019 v22 0 12 X64 Multilingual
  7. 2020-03-27Windows 7 SP1 Ultimate 6in1 (x86/x64) OEM ESD March 2020
  8. 2020-03-27Pdf995 Printer Driver 20.0
  9. 2020-03-27Guitar Pro 7.5.4 Build 1788 Multilingual
  10. 2020-03-27MetaProducts AutoDialogs v2.8.0.190
  11. 2020-03-27Apeaksoft Data Recovery v1.2.10 Multilingual
  12. 2020-03-27Coolmuster Data Recovery v2.1.16 Multilingual
  13. 2020-03-27Daily Star [2020 03 08]
  14. 2020-03-27London Evening Standard [2020 03 13]
  15. 2020-03-27Abelssoft Screenphoto 2020 v5 11
  16. 2020-03-27Tenorshare iCareFone v6.0.1.24 Multilingual
  17. 2020-03-27Daily Express [2020 03 14]
  18. 2020-03-27Abelssoft GClean 2020 v220 1 12
  19. 2020-03-27Daily Star [2020 03 10]
  20. 2020-03-27Abelssoft EverDoc 2020 v4 04
  21. 2020-03-27London Evening Standard [2020 03 06]
  22. 2020-03-27Daily Star [2020 03 16]
  23. 2020-03-27Daily Express [2020 03 06]
  24. 2020-03-27Abelssoft CleverPrint v8 1 17
  25. 2020-03-27The Globe and Mail (Ottawa Québec Edition) [2020 03 10]
  26. 2020-03-27The Sun [2020 03 16]
  27. 2020-03-27Onward 2020 1080p WEBRip DDP5 1 x264-BLUTONiUM - Removed
  28. 2020-03-27Solid.Angle Maya To Arnold v4 0 1 For Maya 2019
  29. 2020-03-27Hostage 2005 720p BluRay x264-RedJohn
  30. 2020-03-27MusConv Ultimate 4.9.45 - Removed
  31. 2020-03-27Autodesk 3DS MAX 2021 (x64) Multilanguage
  32. 2020-03-27Daily Express [2020 03 11]
  33. 2020-03-27The Globe and Mail (Ottawa Québec Edition) [2020 03 13]
  34. 2020-03-27VFW 2019 720p BluRay x264-ROVERS
  35. 2020-03-27Solid.Angle Houdini To Arnold v5 0 2 for Houdini 18 0 348 LINUX
  36. 2020-03-27The Sun [2020 03 11]
  37. 2020-03-27Driver Talent Pro v7.1.28.108
  38. 2020-03-27Goversoft Privazer v3.0.95.2 Donors Multilingual
  39. 2020-03-27The Sun [2020 03 06]
  40. 2020-03-27CoffeeCup Responsive Site Designer 4.0 Build 3256
  41. 2020-03-27Solid.Angle 3ds Max To Arnold v3 2 66 For 3ds Max 2019
  42. 2020-03-27Movavi Slideshow Maker v6.4.0 Multilingual
  43. 2020-03-27London Evening Standard [2020 03 12]
  44. 2020-03-27HitmanPro v3.8.18 Build 312 Multilingual
  45. 2020-03-27Screaming Frog Log File Analyser 4.0
  46. 2020-03-27Zuken E3.series 2019 SP1 P2 Build 20.12 Update Only (x86-x64)
  47. 2020-03-27TLex Suite 2020 v11.1.0.2650 Multilingual
  48. 2020-03-27Daily Express [2020 03 17]
  49. 2020-03-27Autodesk AUTOCAD LT v2021 (x64)
  50. 2020-03-27The Sun [2020 03 17]
  51. 2020-03-27The Sun [2020 03 13]
  52. 2020-03-27Daily Express [2020 03 10]
  53. 2020-03-27Big Fish Audio Kandiland MULTIFORMAT
  54. 2020-03-27London Evening Standard [2020 03 16]
  55. 2020-03-27Photography Night Low Light Landscape Photography Californias Mobius Arch
  56. 2020-03-27Photography Pictures Move Creating Cinemagraphs Photoshop After Effects Flixel Cliplets
  57. 2020-03-27Daily Star [2020 03 12]
  58. 2020-03-27Photoshop Bert Monroy Dreamscapes Volume 2
  59. 2020-03-27The Globe and Mail (Ottawa Québec Edition) [2020 03 12]
  60. 2020-03-27The Scotsman [2020 03 16]
  61. 2020-03-27Daily Star [2020 03 17]
  62. 2020-03-27Photoshop CC 2015 One One Fundamentals
  63. 2020-03-27Sunday Express [2020 03 08]
  64. 2020-03-27The Globe and Mail (Ottawa Québec Edition) [2020 03 11]
  65. 2020-03-27Photoshop Photographers Lighting Effects
  66. 2020-03-27Daily Star [2020 03 07]
  67. 2020-03-27Smithsonian Ch. - Black in Space Breaking the Color Barrier (2019)
  68. 2020-03-27The Sun [2020 03 08]
  69. 2020-03-27Daily Express [2020 03 13]
  70. 2020-03-27Street Photography tips5 Day Photo Challenge Street Photography
  71. 2020-03-27Todd Brown - Borrowed Best Seller
  72. 2020-03-27Absolutely Mama Issue 22 - November 2018
  73. 2020-03-27Unity 2D Game Development Udemy
  74. 2020-03-27Absolutely Mama Issue 24 - January 2019
  75. 2020-03-27Using Creating Lens Profiles Adobe CC Applications
  76. 2020-03-27Windows Admin Center Unlock Azure Hybrid Value Pluralsight - Removed
  77. 2020-03-2713 Logo EPS Template Set
  78. 2020-03-27Bass Magazine [True PDF] - Issue 6 2020
  79. 2020-03-27BBC Wildlife [True PDF] - April 2020
  80. 2020-03-27Abstract Background with Realistic Shadows Premium Set
  81. 2020-03-27Australian Pro Photo [True PDF] - Issue 226 2020
  82. 2020-03-27Chalk Lettering Photoshop Action 25362744
  83. 2020-03-27Bead and Button - April 2020
  84. 2020-03-27CodeCanyon - Bookmify v1.3.6 - Appointment Booking WordPress Plugin - 23837899
  85. 2020-03-2725 Beautiful Homes - April 2020
  86. 2020-03-27Absolutely Mama - January 2020
  87. 2020-03-27dreamkiller 2015 1080p AMZN WEB-DL DD 5.1 H.264-QOQ
  88. 2020-03-27Aperture [True PDF] - Issue 238 2020
  89. 2020-03-27DOMESTIC INDUSTRY - Powerpoint V416
  90. 2020-03-27EarthView 6.3.4
  91. 2020-03-27BMW Car [True PDF] - April 2020
  92. 2020-03-27EarthTime 6.3.4
  93. 2020-03-27American Farmhouse Style [True PDF] - April May 2020
  94. 2020-03-27Sweet lollipop and candy delicious dessert painted illustrations
  95. 2020-03-27Android Advisor 72 - 2020 UK
  96. 2020-03-27Videohive - Mosaic History Opener - 19569695
  97. 2020-03-27At Home in Arkansas - April 2020
  98. 2020-03-27Back Street Heroes Issue 429 - January 2020
  99. 2020-03-27Unity Pro 2019.3.7f1 (x64)

More eBooks ...

49919 pages, 4991860 eBooks in total, list all pages->

Search free ebooks in ebookee.com!
Back to Top